sensor_id;sensor_type;location;lat;lon;timestamp;pressure;altitude;pressure_sealevel;temperature;humidity
7050;BME280;22263;52.260;10.548;2023-12-20T00:02:25;100032.09;;;7.29;100.00
7050;BME280;22263;52.260;10.548;2023-12-20T00:05:00;100026.47;;;7.22;100.00
7050;BME280;22263;52.260;10.548;2023-12-20T00:07:35;100029.56;;;7.20;100.00
7050;BME280;22263;52.260;10.548;2023-12-20T00:10:06;100008.31;;;7.17;100.00
7050;BME280;22263;52.260;10.548;2023-12-20T00:12:37;100008.31;;;7.17;100.00
7050;BME280;22263;52.260;10.548;2023-12-20T00:15:11;100021.69;;;7.41;100.00
7050;BME280;22263;52.260;10.548;2023-12-20T00:17:46;100017.97;;;7.30;100.00
7050;BME280;22263;52.260;10.548;2023-12-20T00:20:19;100017.97;;;7.30;100.00
7050;BME280;22263;52.260;10.548;2023-12-20T00:22:55;100032.09;;;7.29;100.00
7050;BME280;22263;52.260;10.548;2023-12-20T00:25:35;100003.25;;;6.96;100.00
7050;BME280;22263;52.260;10.548;2023-12-20T00:28:06;100025.00;;;7.28;100.00
7050;BME280;22263;52.260;10.548;2023-12-20T00:30:37;100015.03;;;7.20;100.00
7050;BME280;22263;52.260;10.548;2023-12-20T00:33:10;100018.25;;;7.25;100.00
7050;BME280;22263;52.260;10.548;2023-12-20T00:35:43;100028.78;;;7.20;100.00
7050;BME280;22263;52.260;10.548;2023-12-20T00:38:18;100036.41;;;7.30;100.00
7050;BME280;22263;52.260;10.548;2023-12-20T00:40:49;100029.25;;;7.25;100.00
7050;BME280;22263;52.260;10.548;2023-12-20T00:43:19;100023.47;;;7.30;100.00
7050;BME280;22263;52.260;10.548;2023-12-20T00:45:49;100027.50;;;7.36;100.00
7050;BME280;22263;52.260;10.548;2023-12-20T00:48:19;100035.63;;;7.29;100.00
7050;BME280;22263;52.260;10.548;2023-12-20T00:50:49;100036.41;;;7.53;100.00
7050;BME280;22263;52.260;10.548;2023-12-20T00:53:22;100038.19;;;7.68;100.00
7050;BME280;22263;52.260;10.548;2023-12-20T00:55:53;100046.22;;;7.76;100.00
7050;BME280;22263;52.260;10.548;2023-12-20T00:58:26;100045.81;;;7.78;100.00
7050;BME280;22263;52.260;10.548;2023-12-20T01:01:00;100036.53;;;7.86;100.00
7050;BME280;22263;52.260;10.548;2023-12-20T01:03:32;100039.69;;;7.62;100.00
7050;BME280;22263;52.260;10.548;2023-12-20T01:06:04;100053.03;;;7.86;100.00
7050;BME280;22263;52.260;10.548;2023-12-20T01:08:50;100048.56;;;7.78;100.00
7050;BME280;22263;52.260;10.548;2023-12-20T01:11:47;100049.75;;;7.77;100.00
7050;BME280;22263;52.260;10.548;2023-12-20T01:14:19;100036.75;;;7.77;100.00
7050;BME280;22263;52.260;10.548;2023-12-20T01:16:52;100043.28;;;7.66;100.00
7050;BME280;22263;52.260;10.548;2023-12-20T01:19:27;100032.91;;;7.82;100.00
7050;BME280;22263;52.260;10.548;2023-12-20T01:22:03;100043.16;;;7.81;100.00
7050;BME280;22263;52.260;10.548;2023-12-20T01:24:39;100025.13;;;7.87;100.00
7050;BME280;22263;52.260;10.548;2023-12-20T01:27:11;100038.47;;;7.85;100.00
7050;BME280;22263;52.260;10.548;2023-12-20T01:29:42;100044.94;;;7.70;100.00
7050;BME280;22263;52.260;10.548;2023-12-20T01:32:20;100054.06;;;7.78;100.00
7050;BME280;22263;52.260;10.548;2023-12-20T01:34:53;100043.50;;;7.80;100.00
7050;BME280;22263;52.260;10.548;2023-12-20T01:37:31;100040.41;;;7.59;100.00
7050;BME280;22263;52.260;10.548;2023-12-20T01:40:09;100030.09;;;7.52;100.00
7050;BME280;22263;52.260;10.548;2023-12-20T01:42:46;100040.50;;;7.39;100.00
7050;BME280;22263;52.260;10.548;2023-12-20T01:45:20;100037.38;;;7.41;100.00
7050;BME280;22263;52.260;10.548;2023-12-20T01:47:58;100040.19;;;7.44;100.00
7050;BME280;22263;52.260;10.548;2023-12-20T01:50:37;100050.41;;;7.44;100.00
7050;BME280;22263;52.260;10.548;2023-12-20T01:53:20;100049.13;;;7.38;100.00
7050;BME280;22263;52.260;10.548;2023-12-20T01:55:59;100052.56;;;7.31;100.00
7050;BME280;22263;52.260;10.548;2023-12-20T01:58:38;100046.56;;;7.26;100.00
7050;BME280;22263;52.260;10.548;2023-12-20T02:01:11;100054.00;;;7.25;100.00
7050;BME280;22263;52.260;10.548;2023-12-20T02:03:44;100050.56;;;7.28;100.00
7050;BME280;22263;52.260;10.548;2023-12-20T02:06:23;100056.59;;;7.37;100.00
7050;BME280;22263;52.260;10.548;2023-12-20T02:09:00;100044.56;;;7.23;100.00
7050;BME280;22263;52.260;10.548;2023-12-20T02:11:34;100045.56;;;7.15;100.00
7050;BME280;22263;52.260;10.548;2023-12-20T02:14:07;100062.25;;;7.25;100.00
7050;BME280;22263;52.260;10.548;2023-12-20T02:16:38;100067.22;;;7.39;100.00
7050;BME280;22263;52.260;10.548;2023-12-20T02:19:13;100071.81;;;7.31;100.00
7050;BME280;22263;52.260;10.548;2023-12-20T02:22:05;100071.81;;;7.31;100.00
7050;BME280;22263;52.260;10.548;2023-12-20T02:24:47;100055.13;;;7.21;100.00
7050;BME280;22263;52.260;10.548;2023-12-20T02:27:28;100050.16;;;7.07;100.00
7050;BME280;22263;52.260;10.548;2023-12-20T02:30:09;100070.44;;;6.99;100.00
7050;BME280;22263;52.260;10.548;2023-12-20T02:33:09;100060.06;;;7.12;100.00
7050;BME280;22263;52.260;10.548;2023-12-20T02:35:53;100067.97;;;7.13;100.00
7050;BME280;22263;52.260;10.548;2023-12-20T02:38:37;100058.00;;;6.86;100.00
7050;BME280;22263;52.260;10.548;2023-12-20T02:41:10;100055.84;;;6.95;100.00
7050;BME280;22263;52.260;10.548;2023-12-20T02:43:45;100052.81;;;7.00;100.00
7050;BME280;22263;52.260;10.548;2023-12-20T02:46:18;100052.66;;;6.93;100.00
7050;BME280;22263;52.260;10.548;2023-12-20T02:48:50;100057.41;;;6.96;100.00
7050;BME280;22263;52.260;10.548;2023-12-20T02:51:20;100040.63;;;7.01;100.00
7050;BME280;22263;52.260;10.548;2023-12-20T02:53:53;100038.72;;;6.82;100.00
7050;BME280;22263;52.260;10.548;2023-12-20T02:56:24;100044.00;;;6.72;100.00
7050;BME280;22263;52.260;10.548;2023-12-20T02:58:54;100048.78;;;6.75;100.00
7050;BME280;22263;52.260;10.548;2023-12-20T03:01:25;100052.59;;;6.89;100.00
7050;BME280;22263;52.260;10.548;2023-12-20T03:03:56;100039.09;;;6.81;100.00
7050;BME280;22263;52.260;10.548;2023-12-20T03:06:29;100044.75;;;6.69;100.00
7050;BME280;22263;52.260;10.548;2023-12-20T03:09:04;100045.31;;;6.58;100.00
7050;BME280;22263;52.260;10.548;2023-12-20T03:11:35;100019.16;;;6.45;100.00
7050;BME280;22263;52.260;10.548;2023-12-20T03:14:07;100018.72;;;6.43;100.00
7050;BME280;22263;52.260;10.548;2023-12-20T03:16:43;100029.34;;;6.26;100.00
7050;BME280;22263;52.260;10.548;2023-12-20T03:19:19;100028.84;;;6.58;100.00
7050;BME280;22263;52.260;10.548;2023-12-20T03:21:55;100027.69;;;6.60;100.00
7050;BME280;22263;52.260;10.548;2023-12-20T03:24:36;100040.06;;;6.50;100.00
7050;BME280;22263;52.260;10.548;2023-12-20T03:27:16;100022.28;;;6.44;100.00
7050;BME280;22263;52.260;10.548;2023-12-20T03:29:49;100030.59;;;6.47;100.00
7050;BME280;22263;52.260;10.548;2023-12-20T03:32:22;100022.66;;;6.23;100.00
7050;BME280;22263;52.260;10.548;2023-12-20T03:34:57;100022.56;;;6.39;100.00
7050;BME280;22263;52.260;10.548;2023-12-20T03:37:33;100015.00;;;6.32;100.00
7050;BME280;22263;52.260;10.548;2023-12-20T03:40:09;100022.22;;;6.21;100.00
7050;BME280;22263;52.260;10.548;2023-12-20T03:42:49;100020.91;;;6.34;100.00
7050;BME280;22263;52.260;10.548;2023-12-20T03:45:22;100009.78;;;6.27;100.00
7050;BME280;22263;52.260;10.548;2023-12-20T03:47:54;100003.00;;;6.21;100.00
7050;BME280;22263;52.260;10.548;2023-12-20T03:50:26;99983.78;;;6.02;100.00
7050;BME280;22263;52.260;10.548;2023-12-20T03:52:57;99996.47;;;6.10;100.00
7050;BME280;22263;52.260;10.548;2023-12-20T03:55:33;99995.50;;;5.83;100.00
7050;BME280;22263;52.260;10.548;2023-12-20T03:58:07;99993.38;;;5.92;100.00
7050;BME280;22263;52.260;10.548;2023-12-20T04:00:40;99986.66;;;5.90;100.00
7050;BME280;22263;52.260;10.548;2023-12-20T04:03:18;99993.44;;;5.96;100.00
7050;BME280;22263;52.260;10.548;2023-12-20T04:05:50;99987.00;;;5.88;100.00
7050;BME280;22263;52.260;10.548;2023-12-20T04:08:26;99988.47;;;5.86;100.00
7050;BME280;22263;52.260;10.548;2023-12-20T04:11:01;100000.38;;;5.90;100.00
7050;BME280;22263;52.260;10.548;2023-12-20T04:13:34;100002.69;;;5.88;100.00
7050;BME280;22263;52.260;10.548;2023-12-20T04:16:07;99992.63;;;5.95;100.00
7050;BME280;22263;52.260;10.548;2023-12-20T04:18:43;99985.59;;;5.94;100.00
7050;BME280;22263;52.260;10.548;2023-12-20T04:21:25;99981.88;;;5.87;100.00
7050;BME280;22263;52.260;10.548;2023-12-20T04:23:59;99971.53;;;5.80;100.00
7050;BME280;22263;52.260;10.548;2023-12-20T04:26:32;99976.22;;;5.80;100.00
7050;BME280;22263;52.260;10.548;2023-12-20T04:29:03;99978.84;;;5.92;100.00
7050;BME280;22263;52.260;10.548;2023-12-20T04:31:34;99969.75;;;5.72;100.00
7050;BME280;22263;52.260;10.548;2023-12-20T04:34:04;99966.31;;;5.75;100.00
7050;BME280;22263;52.260;10.548;2023-12-20T04:36:38;99973.03;;;5.78;100.00
7050;BME280;22263;52.260;10.548;2023-12-20T04:39:11;99977.00;;;5.80;100.00
7050;BME280;22263;52.260;10.548;2023-12-20T04:41:56;99979.19;;;5.90;100.00
7050;BME280;22263;52.260;10.548;2023-12-20T04:44:28;99984.63;;;5.87;100.00
7050;BME280;22263;52.260;10.548;2023-12-20T04:47:07;99984.63;;;5.87;100.00
7050;BME280;22263;52.260;10.548;2023-12-20T04:49:46;99974.97;;;5.77;100.00
7050;BME280;22263;52.260;10.548;2023-12-20T04:52:21;99987.59;;;5.82;100.00
7050;BME280;22263;52.260;10.548;2023-12-20T04:54:53;99987.59;;;5.82;100.00
7050;BME280;22263;52.260;10.548;2023-12-20T04:57:29;99969.75;;;5.88;100.00
7050;BME280;22263;52.260;10.548;2023-12-20T05:00:00;99972.56;;;5.91;100.00
7050;BME280;22263;52.260;10.548;2023-12-20T05:02:38;99970.06;;;5.86;100.00
7050;BME280;22263;52.260;10.548;2023-12-20T05:05:11;99958.28;;;5.86;100.00
7050;BME280;22263;52.260;10.548;2023-12-20T05:07:46;99968.44;;;6.01;100.00
7050;BME280;22263;52.260;10.548;2023-12-20T05:10:29;99968.97;;;6.06;100.00
7050;BME280;22263;52.260;10.548;2023-12-20T05:13:13;99967.47;;;6.09;100.00
7050;BME280;22263;52.260;10.548;2023-12-20T05:16:10;99956.31;;;6.02;100.00
7050;BME280;22263;52.260;10.548;2023-12-20T05:18:48;99967.88;;;6.11;100.00
7050;BME280;22263;52.260;10.548;2023-12-20T05:21:23;99948.09;;;6.02;100.00
7050;BME280;22263;52.260;10.548;2023-12-20T05:23:54;99945.84;;;6.07;100.00
7050;BME280;22263;52.260;10.548;2023-12-20T05:26:38;99945.84;;;6.07;100.00
7050;BME280;22263;52.260;10.548;2023-12-20T05:29:25;99951.13;;;6.16;100.00
7050;BME280;22263;52.260;10.548;2023-12-20T05:31:58;99969.19;;;6.36;100.00
7050;BME280;22263;52.260;10.548;2023-12-20T05:34:31;99967.56;;;6.35;100.00
7050;BME280;22263;52.260;10.548;2023-12-20T05:37:13;99948.03;;;6.18;100.00
7050;BME280;22263;52.260;10.548;2023-12-20T05:39:44;99952.50;;;6.26;100.00
7050;BME280;22263;52.260;10.548;2023-12-20T05:42:15;99928.63;;;6.30;100.00
7050;BME280;22263;52.260;10.548;2023-12-20T05:44:48;99950.00;;;6.40;100.00
7050;BME280;22263;52.260;10.548;2023-12-20T05:47:27;99941.66;;;6.33;100.00
7050;BME280;22263;52.260;10.548;2023-12-20T05:49:57;99949.22;;;6.39;100.00
7050;BME280;22263;52.260;10.548;2023-12-20T05:52:39;99955.72;;;6.50;100.00
7050;BME280;22263;52.260;10.548;2023-12-20T05:55:18;99930.66;;;6.33;100.00
7050;BME280;22263;52.260;10.548;2023-12-20T05:57:50;99944.22;;;6.45;100.00
7050;BME280;22263;52.260;10.548;2023-12-20T06:00:27;99931.41;;;6.52;100.00
7050;BME280;22263;52.260;10.548;2023-12-20T06:03:04;99938.53;;;6.57;100.00
7050;BME280;22263;52.260;10.548;2023-12-20T06:05:36;99931.84;;;6.54;100.00
7050;BME280;22263;52.260;10.548;2023-12-20T06:08:07;99939.28;;;6.54;100.00
7050;BME280;22263;52.260;10.548;2023-12-20T06:10:40;99942.28;;;6.45;100.00
7050;BME280;22263;52.260;10.548;2023-12-20T06:13:23;99940.38;;;6.49;100.00
7050;BME280;22263;52.260;10.548;2023-12-20T06:15:59;99940.44;;;6.53;100.00
7050;BME280;22263;52.260;10.548;2023-12-20T06:18:34;99939.91;;;6.67;100.00
7050;BME280;22263;52.260;10.548;2023-12-20T06:21:13;99951.94;;;6.58;100.00
7050;BME280;22263;52.260;10.548;2023-12-20T06:23:48;99946.78;;;6.57;100.00
7050;BME280;22263;52.260;10.548;2023-12-20T06:26:19;99942.03;;;6.54;100.00
7050;BME280;22263;52.260;10.548;2023-12-20T06:28:54;99951.38;;;6.49;100.00
7050;BME280;22263;52.260;10.548;2023-12-20T06:31:30;99963.84;;;6.66;100.00
7050;BME280;22263;52.260;10.548;2023-12-20T06:34:01;99961.75;;;6.60;100.00
7050;BME280;22263;52.260;10.548;2023-12-20T06:36:32;99953.06;;;6.57;100.00
7050;BME280;22263;52.260;10.548;2023-12-20T06:39:12;99952.38;;;6.61;100.00
7050;BME280;22263;52.260;10.548;2023-12-20T06:42:11;99941.97;;;6.50;100.00
7050;BME280;22263;52.260;10.548;2023-12-20T06:45:01;99955.66;;;6.70;100.00
7050;BME280;22263;52.260;10.548;2023-12-20T06:48:24;99952.41;;;6.64;100.00
7050;BME280;22263;52.260;10.548;2023-12-20T06:51:21;99947.47;;;6.50;100.00
7050;BME280;22263;52.260;10.548;2023-12-20T06:54:29;99949.03;;;6.71;100.00
7050;BME280;22263;52.260;10.548;2023-12-20T06:58:23;99945.56;;;6.54;100.00
7050;BME280;22263;52.260;10.548;2023-12-20T07:01:46;99946.44;;;6.58;100.00
7050;BME280;22263;52.260;10.548;2023-12-20T07:05:26;99929.25;;;6.62;100.00
7050;BME280;22263;52.260;10.548;2023-12-20T07:08:46;99935.56;;;6.88;100.00
7050;BME280;22263;52.260;10.548;2023-12-20T07:12:42;99928.91;;;6.67;100.00
7050;BME280;22263;52.260;10.548;2023-12-20T07:16:30;99923.41;;;6.67;100.00
7050;BME280;22263;52.260;10.548;2023-12-20T07:20:18;99929.03;;;6.74;100.00
7050;BME280;22263;52.260;10.548;2023-12-20T07:44:29;99956.22;;;6.56;100.00
7050;BME280;22263;52.260;10.548;2023-12-20T07:51:35;99953.16;;;6.61;100.00
7050;BME280;22263;52.260;10.548;2023-12-20T08:06:05;99932.28;;;6.56;100.00
7050;BME280;22263;52.260;10.548;2023-12-20T08:09:35;99948.13;;;6.44;100.00
7050;BME280;22263;52.260;10.548;2023-12-20T08:12:57;99949.69;;;6.64;100.00
7050;BME280;22263;52.260;10.548;2023-12-20T08:19:27;99949.25;;;6.85;100.00
7050;BME280;22263;52.260;10.548;2023-12-20T08:26:31;99937.22;;;6.93;100.00
7050;BME280;22263;52.260;10.548;2023-12-20T08:30:08;99958.78;;;6.91;100.00
7050;BME280;22263;52.260;10.548;2023-12-20T08:33:47;99921.69;;;6.81;100.00
7050;BME280;22263;52.260;10.548;2023-12-20T08:37:38;99945.66;;;6.81;100.00
7050;BME280;22263;52.260;10.548;2023-12-20T08:41:49;99956.09;;;6.94;100.00
7050;BME280;22263;52.260;10.548;2023-12-20T08:45:55;99944.19;;;6.87;100.00
7050;BME280;22263;52.260;10.548;2023-12-20T08:53:58;99919.81;;;6.63;100.00
7050;BME280;22263;52.260;10.548;2023-12-20T09:12:34;99916.50;;;6.76;100.00
7050;BME280;22263;52.260;10.548;2023-12-20T09:16:25;99909.94;;;6.81;100.00
7050;BME280;22263;52.260;10.548;2023-12-20T09:19:56;99890.28;;;6.79;100.00
7050;BME280;22263;52.260;10.548;2023-12-20T09:23:49;99905.84;;;6.94;100.00
7050;BME280;22263;52.260;10.548;2023-12-20T09:27:41;99889.03;;;6.99;100.00
7050;BME280;22263;52.260;10.548;2023-12-20T09:34:48;99873.91;;;7.12;100.00
7050;BME280;22263;52.260;10.548;2023-12-20T09:38:28;99856.56;;;7.08;100.00
7050;BME280;22263;52.260;10.548;2023-12-20T09:42:07;99869.41;;;7.27;100.00
7050;BME280;22263;52.260;10.548;2023-12-20T09:57:13;99851.28;;;7.22;100.00
7050;BME280;22263;52.260;10.548;2023-12-20T10:04:07;99844.84;;;7.15;100.00
7050;BME280;22263;52.260;10.548;2023-12-20T10:07:10;99818.59;;;7.17;100.00
7050;BME280;22263;52.260;10.548;2023-12-20T10:10:42;99825.38;;;7.23;100.00
7050;BME280;22263;52.260;10.548;2023-12-20T10:14:26;99818.69;;;7.24;100.00
7050;BME280;22263;52.260;10.548;2023-12-20T10:18:31;99812.78;;;7.22;100.00
7050;BME280;22263;52.260;10.548;2023-12-20T10:21:32;99824.41;;;7.38;100.00
7050;BME280;22263;52.260;10.548;2023-12-20T10:24:45;99803.13;;;7.35;100.00
7050;BME280;22263;52.260;10.548;2023-12-20T10:28:20;99818.63;;;7.51;100.00
7050;BME280;22263;52.260;10.548;2023-12-20T10:39:07;99776.94;;;7.49;100.00
7050;BME280;22263;52.260;10.548;2023-12-20T10:42:21;99770.13;;;7.72;100.00
7050;BME280;22263;52.260;10.548;2023-12-20T10:57:34;99747.97;;;7.58;100.00
7050;BME280;22263;52.260;10.548;2023-12-20T11:11:51;99735.00;;;7.59;100.00
7050;BME280;22263;52.260;10.548;2023-12-20T11:33:03;99718.00;;;7.50;100.00
7050;BME280;22263;52.260;10.548;2023-12-20T11:37:04;99729.94;;;7.61;100.00
7050;BME280;22263;52.260;10.548;2023-12-20T11:40:35;99681.47;;;7.49;100.00
7050;BME280;22263;52.260;10.548;2023-12-20T11:44:06;99716.38;;;7.82;100.00
7050;BME280;22263;52.260;10.548;2023-12-20T11:47:30;99705.31;;;7.75;100.00
7050;BME280;22263;52.260;10.548;2023-12-20T11:55:03;99694.63;;;7.66;100.00
7050;BME280;22263;52.260;10.548;2023-12-20T11:58:52;99720.59;;;7.72;100.00
7050;BME280;22263;52.260;10.548;2023-12-20T12:32:22;99735.25;;;7.10;100.00
7050;BME280;22263;52.260;10.548;2023-12-20T12:35:57;99715.38;;;6.93;100.00
7050;BME280;22263;52.260;10.548;2023-12-20T12:43:16;99718.34;;;7.11;100.00
7050;BME280;22263;52.260;10.548;2023-12-20T12:46:59;99723.72;;;7.00;100.00
7050;BME280;22263;52.260;10.548;2023-12-20T13:05:31;99740.41;;;6.85;100.00
7050;BME280;22263;52.260;10.548;2023-12-20T13:09:02;99713.06;;;6.66;100.00
7050;BME280;22263;52.260;10.548;2023-12-20T13:12:34;99739.25;;;6.60;100.00
7050;BME280;22263;52.260;10.548;2023-12-20T13:16:22;99714.34;;;6.45;100.00
7050;BME280;22263;52.260;10.548;2023-12-20T13:23:16;99726.63;;;6.55;100.00
7050;BME280;22263;52.260;10.548;2023-12-20T13:27:21;99713.91;;;6.43;100.00
7050;BME280;22263;52.260;10.548;2023-12-20T13:30:48;99725.00;;;6.50;100.00
7050;BME280;22263;52.260;10.548;2023-12-20T13:41:21;99720.88;;;6.37;100.00
7050;BME280;22263;52.260;10.548;2023-12-20T13:52:35;99745.97;;;6.36;100.00
7050;BME280;22263;52.260;10.548;2023-12-20T14:00:13;99737.31;;;6.60;100.00
7050;BME280;22263;52.260;10.548;2023-12-20T14:03:25;99743.47;;;6.53;100.00
7050;BME280;22263;52.260;10.548;2023-12-20T14:06:55;99717.88;;;6.46;100.00
7050;BME280;22263;52.260;10.548;2023-12-20T14:10:11;99741.22;;;6.59;100.00
7050;BME280;22263;52.260;10.548;2023-12-20T14:24:34;99723.72;;;6.71;100.00
7050;BME280;22263;52.260;10.548;2023-12-20T14:35:41;99748.38;;;6.93;100.00
7050;BME280;22263;52.260;10.548;2023-12-20T15:14:55;99778.56;;;6.90;100.00
7050;BME280;22263;52.260;10.548;2023-12-20T15:25:53;99750.69;;;6.91;100.00
7050;BME280;22263;52.260;10.548;2023-12-20T15:36:44;99746.78;;;6.92;100.00
7050;BME280;22263;52.260;10.548;2023-12-20T15:39:58;99759.00;;;6.95;100.00
7050;BME280;22263;52.260;10.548;2023-12-20T15:42:33;99764.53;;;6.98;100.00
7050;BME280;22263;52.260;10.548;2023-12-20T15:45:14;99766.72;;;7.16;100.00
7050;BME280;22263;52.260;10.548;2023-12-20T15:47:46;99767.81;;;6.81;100.00
7050;BME280;22263;52.260;10.548;2023-12-20T15:50:18;99765.22;;;6.92;100.00
7050;BME280;22263;52.260;10.548;2023-12-20T15:52:59;99760.56;;;6.96;100.00
7050;BME280;22263;52.260;10.548;2023-12-20T15:55:50;99769.03;;;6.84;100.00
7050;BME280;22263;52.260;10.548;2023-12-20T15:58:22;99773.31;;;6.81;100.00
7050;BME280;22263;52.260;10.548;2023-12-20T16:00:54;99766.63;;;6.79;100.00
7050;BME280;22263;52.260;10.548;2023-12-20T16:03:26;99768.28;;;6.87;100.00
7050;BME280;22263;52.260;10.548;2023-12-20T16:06:05;99774.84;;;6.79;100.00
7050;BME280;22263;52.260;10.548;2023-12-20T16:08:38;99769.13;;;6.91;100.00
7050;BME280;22263;52.260;10.548;2023-12-20T16:11:11;99770.06;;;7.02;100.00
7050;BME280;22263;52.260;10.548;2023-12-20T16:13:59;99770.75;;;6.95;100.00
7050;BME280;22263;52.260;10.548;2023-12-20T16:27:20;99771.75;;;6.80;100.00
7050;BME280;22263;52.260;10.548;2023-12-20T16:31:08;99775.00;;;6.63;100.00
7050;BME280;22263;52.260;10.548;2023-12-20T16:33:47;99770.31;;;6.64;100.00
7050;BME280;22263;52.260;10.548;2023-12-20T16:36:20;99786.69;;;6.56;100.00
7050;BME280;22263;52.260;10.548;2023-12-20T16:39:20;99785.59;;;6.61;100.00
7050;BME280;22263;52.260;10.548;2023-12-20T16:41:56;99784.25;;;6.51;100.00
7050;BME280;22263;52.260;10.548;2023-12-20T16:44:31;99784.19;;;6.48;100.00
7050;BME280;22263;52.260;10.548;2023-12-20T16:47:02;99792.44;;;6.48;100.00
7050;BME280;22263;52.260;10.548;2023-12-20T16:49:32;99799.91;;;6.47;100.00
7050;BME280;22263;52.260;10.548;2023-12-20T16:52:03;99798.41;;;6.53;100.00
7050;BME280;22263;52.260;10.548;2023-12-20T16:54:33;99791.84;;;6.35;100.00
7050;BME280;22263;52.260;10.548;2023-12-20T16:57:04;99801.97;;;6.31;100.00
7050;BME280;22263;52.260;10.548;2023-12-20T16:59:41;99795.63;;;6.27;100.00
7050;BME280;22263;52.260;10.548;2023-12-20T17:02:12;99810.88;;;6.47;100.00
7050;BME280;22263;52.260;10.548;2023-12-20T17:04:42;99812.34;;;6.41;100.00
7050;BME280;22263;52.260;10.548;2023-12-20T17:07:12;99787.09;;;6.32;100.00
7050;BME280;22263;52.260;10.548;2023-12-20T17:09:44;99788.75;;;6.37;100.00
7050;BME280;22263;52.260;10.548;2023-12-20T17:12:16;99794.03;;;6.26;100.00
7050;BME280;22263;52.260;10.548;2023-12-20T17:14:48;99791.03;;;6.35;100.00
7050;BME280;22263;52.260;10.548;2023-12-20T17:17:19;99792.44;;;6.25;100.00
7050;BME280;22263;52.260;10.548;2023-12-20T17:19:50;99781.41;;;6.44;100.00
7050;BME280;22263;52.260;10.548;2023-12-20T17:22:20;99795.50;;;6.20;100.00
7050;BME280;22263;52.260;10.548;2023-12-20T17:24:51;99793.19;;;6.22;100.00
7050;BME280;22263;52.260;10.548;2023-12-20T17:27:21;99796.28;;;6.43;100.00
7050;BME280;22263;52.260;10.548;2023-12-20T17:29:53;99785.72;;;6.00;100.00
7050;BME280;22263;52.260;10.548;2023-12-20T17:32:23;99779.81;;;6.21;100.00
7050;BME280;22263;52.260;10.548;2023-12-20T17:34:53;99779.16;;;6.27;100.00
7050;BME280;22263;52.260;10.548;2023-12-20T17:37:24;99779.00;;;6.43;100.00
7050;BME280;22263;52.260;10.548;2023-12-20T17:39:54;99793.25;;;6.26;100.00
7050;BME280;22263;52.260;10.548;2023-12-20T17:42:24;99782.28;;;6.03;100.00
7050;BME280;22263;52.260;10.548;2023-12-20T17:44:57;99791.91;;;6.16;100.00
7050;BME280;22263;52.260;10.548;2023-12-20T17:47:27;99784.47;;;6.17;100.00
7050;BME280;22263;52.260;10.548;2023-12-20T17:49:57;99785.97;;;6.14;100.00
7050;BME280;22263;52.260;10.548;2023-12-20T17:52:28;99780.31;;;6.03;100.00
7050;BME280;22263;52.260;10.548;2023-12-20T17:54:59;99776.03;;;6.06;100.00
7050;BME280;22263;52.260;10.548;2023-12-20T17:57:30;99782.09;;;6.15;100.00
7050;BME280;22263;52.260;10.548;2023-12-20T18:00:14;99769.78;;;5.86;100.00
7050;BME280;22263;52.260;10.548;2023-12-20T18:02:45;99766.75;;;6.14;100.00
7050;BME280;22263;52.260;10.548;2023-12-20T18:05:19;99771.78;;;6.08;100.00
7050;BME280;22263;52.260;10.548;2023-12-20T18:07:49;99768.31;;;5.89;100.00
7050;BME280;22263;52.260;10.548;2023-12-20T18:10:20;99765.69;;;5.77;100.00
7050;BME280;22263;52.260;10.548;2023-12-20T18:12:50;99770.84;;;6.01;100.00
7050;BME280;22263;52.260;10.548;2023-12-20T18:15:23;99760.63;;;5.79;100.00
7050;BME280;22263;52.260;10.548;2023-12-20T18:17:53;99769.97;;;5.74;100.00
7050;BME280;22263;52.260;10.548;2023-12-20T18:20:24;99781.16;;;5.65;100.00
7050;BME280;22263;52.260;10.548;2023-12-20T18:22:54;99764.03;;;5.72;100.00
7050;BME280;22263;52.260;10.548;2023-12-20T18:25:25;99770.41;;;5.57;100.00
7050;BME280;22263;52.260;10.548;2023-12-20T18:27:57;99748.84;;;5.55;100.00
7050;BME280;22263;52.260;10.548;2023-12-20T18:30:30;99753.78;;;5.46;100.00
7050;BME280;22263;52.260;10.548;2023-12-20T18:33:01;99765.47;;;5.66;100.00
7050;BME280;22263;52.260;10.548;2023-12-20T18:35:31;99760.13;;;5.73;100.00
7050;BME280;22263;52.260;10.548;2023-12-20T18:38:03;99769.47;;;5.68;100.00
7050;BME280;22263;52.260;10.548;2023-12-20T18:40:34;99746.41;;;5.50;100.00
7050;BME280;22263;52.260;10.548;2023-12-20T18:43:08;99744.94;;;5.56;100.00
7050;BME280;22263;52.260;10.548;2023-12-20T18:45:42;99761.31;;;5.53;100.00
7050;BME280;22263;52.260;10.548;2023-12-20T18:48:12;99757.88;;;5.56;100.00
7050;BME280;22263;52.260;10.548;2023-12-20T18:50:43;99739.03;;;5.54;100.00
7050;BME280;22263;52.260;10.548;2023-12-20T18:53:15;99747.16;;;5.70;100.00
7050;BME280;22263;52.260;10.548;2023-12-20T18:55:47;99747.78;;;5.83;100.00
7050;BME280;22263;52.260;10.548;2023-12-20T18:58:19;99737.41;;;5.72;100.00
7050;BME280;22263;52.260;10.548;2023-12-20T19:00:55;99743.63;;;5.69;100.00
7050;BME280;22263;52.260;10.548;2023-12-20T19:03:28;99707.88;;;5.43;100.00
7050;BME280;22263;52.260;10.548;2023-12-20T19:05:59;99720.38;;;5.63;100.00
7050;BME280;22263;52.260;10.548;2023-12-20T19:08:30;99718.50;;;5.67;100.00
7050;BME280;22263;52.260;10.548;2023-12-20T19:11:01;99713.00;;;5.67;100.00
7050;BME280;22263;52.260;10.548;2023-12-20T19:13:32;99712.47;;;5.58;100.00
7050;BME280;22263;52.260;10.548;2023-12-20T19:16:06;99691.03;;;5.64;100.00
7050;BME280;22263;52.260;10.548;2023-12-20T19:18:37;99689.88;;;5.88;100.00
7050;BME280;22263;52.260;10.548;2023-12-20T19:21:09;99671.63;;;5.76;100.00
7050;BME280;22263;52.260;10.548;2023-12-20T19:23:39;99670.13;;;5.79;100.00
7050;BME280;22263;52.260;10.548;2023-12-20T19:26:10;99663.03;;;5.78;100.00
7050;BME280;22263;52.260;10.548;2023-12-20T19:28:41;99653.53;;;5.71;100.00
7050;BME280;22263;52.260;10.548;2023-12-20T19:31:15;99658.59;;;5.92;100.00
7050;BME280;22263;52.260;10.548;2023-12-20T19:33:47;99658.34;;;5.78;100.00